createdAt,value
2023-04-02T00:00:43.305Z,51.179276
2023-04-02T00:01:43.333Z,51.179314
2023-04-02T00:02:43.302Z,51.179367
2023-04-02T00:03:43.330Z,51.179344
2023-04-02T00:04:43.277Z,51.179272
2023-04-02T00:05:43.246Z,51.179256
2023-04-02T00:06:43.257Z,51.179272
2023-04-02T00:07:43.249Z,51.179283
2023-04-02T00:08:43.230Z,51.179306
2023-04-02T00:09:43.214Z,51.179283
2023-04-02T00:10:43.211Z,51.179268
2023-04-02T00:11:43.215Z,51.179245
2023-04-02T00:12:43.173Z,51.179310
2023-04-02T00:13:43.197Z,51.179340
2023-04-02T00:14:43.166Z,51.179264
2023-04-02T00:15:43.185Z,51.179287
2023-04-02T00:16:43.195Z,51.179317
2023-04-02T00:17:43.151Z,51.179310
2023-04-02T00:18:43.148Z,51.179306
2023-04-02T00:19:43.112Z,51.179268
2023-04-02T00:20:43.129Z,51.179264
2023-04-02T00:21:43.106Z,51.179276
2023-04-02T00:22:43.092Z,51.179279
2023-04-02T00:23:43.100Z,51.179264
2023-04-02T00:24:43.081Z,51.179272
2023-04-02T00:25:43.147Z,51.179276
2023-04-02T00:26:43.047Z,51.179222
2023-04-02T00:27:43.060Z,51.179234
2023-04-02T00:28:43.026Z,51.179218
2023-04-02T00:29:43.047Z,51.179234
2023-04-02T00:30:43.038Z,51.179291
2023-04-02T00:31:43.041Z,51.179283
2023-04-02T00:32:43.010Z,51.179268
2023-04-02T00:33:42.976Z,51.179272
2023-04-02T00:34:42.987Z,51.179291
2023-04-02T00:35:43.002Z,51.179245
2023-04-02T00:36:42.930Z,51.179226
2023-04-02T00:37:42.952Z,51.179214
2023-04-02T00:38:42.913Z,51.179218
2023-04-02T00:39:42.906Z,51.179203
2023-04-02T00:40:42.889Z,51.179234
2023-04-02T00:41:42.890Z,51.179272
2023-04-02T00:42:42.879Z,51.179253
2023-04-02T00:43:42.875Z,51.179249
2023-04-02T00:44:42.883Z,51.179222
2023-04-02T00:45:42.859Z,51.179226
2023-04-02T00:46:42.844Z,51.179211
2023-04-02T00:47:42.879Z,51.179199
2023-04-02T00:48:42.841Z,51.179222
2023-04-02T00:49:42.819Z,51.179291
2023-04-02T00:50:42.811Z,51.179241
2023-04-02T00:51:42.792Z,51.179222
2023-04-02T00:52:42.805Z,51.179256
2023-04-02T00:53:42.778Z,51.179237
2023-04-02T00:54:42.759Z,51.179207
2023-04-02T00:55:42.770Z,51.179256
2023-04-02T00:56:42.752Z,51.179230
2023-04-02T00:57:42.742Z,51.179253
2023-04-02T00:58:42.725Z,51.179283
2023-04-02T00:59:42.719Z,51.179298
2023-04-02T01:00:42.723Z,51.179283
2023-04-02T01:01:42.898Z,51.179276
2023-04-02T01:02:42.830Z,51.179256
2023-04-02T01:03:42.873Z,51.179249
2023-04-02T01:04:42.653Z,51.179249
2023-04-02T01:05:42.647Z,51.179241
2023-04-02T01:06:42.641Z,51.179264
2023-04-02T01:07:42.621Z,51.179268
2023-04-02T01:08:42.629Z,51.179256
2023-04-02T01:09:42.621Z,51.179249
2023-04-02T01:10:42.624Z,51.179268
2023-04-02T01:11:42.600Z,51.179283
2023-04-02T01:12:42.568Z,51.179253
2023-04-02T01:13:42.565Z,51.179234
2023-04-02T01:14:42.552Z,51.179188
2023-04-02T01:15:42.546Z,51.179184
2023-04-02T01:16:42.563Z,51.179188
2023-04-02T01:17:42.604Z,51.179245
2023-04-02T01:18:42.517Z,51.179249
2023-04-02T01:19:42.500Z,51.179237
2023-04-02T01:20:42.504Z,51.179230
2023-04-02T01:21:42.544Z,51.179234
2023-04-02T01:22:42.482Z,51.179253
2023-04-02T01:23:42.457Z,51.179264
2023-04-02T01:24:42.455Z,51.179279
2023-04-02T01:25:42.459Z,51.179276
2023-04-02T01:26:42.436Z,51.179268
2023-04-02T01:27:42.423Z,51.179260
2023-04-02T01:28:42.395Z,51.179226
2023-04-02T01:29:42.410Z,51.179188
2023-04-02T01:30:42.382Z,51.179207
2023-04-02T01:31:42.441Z,51.179249
2023-04-02T01:32:42.393Z,51.179237
2023-04-02T01:33:42.369Z,51.179226
2023-04-02T01:34:42.339Z,51.179249
2023-04-02T01:35:42.385Z,51.179230
2023-04-02T01:36:42.336Z,51.179226
2023-04-02T01:37:42.300Z,51.179199
2023-04-02T01:38:43.302Z,51.179214
2023-04-02T01:39:42.301Z,51.179214
2023-04-02T01:40:42.278Z,51.179226
2023-04-02T01:41:42.285Z,51.179245
2023-04-02T01:42:42.282Z,51.179245
2023-04-02T01:43:42.260Z,51.179222
2023-04-02T01:44:42.250Z,51.179230
2023-04-02T01:45:42.227Z,51.179234
2023-04-02T01:46:42.283Z,51.179207
2023-04-02T01:47:42.253Z,51.179195
2023-04-02T01:48:42.189Z,51.179207
2023-04-02T01:49:42.210Z,51.179207
2023-04-02T01:50:42.164Z,51.179214
2023-04-02T01:51:42.162Z,51.179199
2023-04-02T01:52:42.162Z,51.179211
2023-04-02T01:53:42.128Z,51.179249
2023-04-02T01:54:42.145Z,51.179268
2023-04-02T01:55:42.136Z,51.179260
2023-04-02T01:56:42.103Z,51.179256
2023-04-02T01:57:42.108Z,51.179276
2023-04-02T01:58:42.089Z,51.179298
2023-04-02T01:59:42.092Z,51.179295
2023-04-02T02:00:42.093Z,51.179272
2023-04-02T02:01:42.057Z,51.179260
2023-04-02T02:02:42.129Z,51.179298
2023-04-02T02:03:42.056Z,51.179256
2023-04-02T02:04:42.017Z,51.179268
2023-04-02T02:05:42.021Z,51.179264
2023-04-02T02:06:41.997Z,51.179276
2023-04-02T02:07:41.999Z,51.179264
2023-04-02T02:08:41.989Z,51.179211
2023-04-02T02:09:41.970Z,51.179230
2023-04-02T02:10:41.980Z,51.179218
2023-04-02T02:11:41.945Z,51.179195
2023-04-02T02:12:41.949Z,51.179207
2023-04-02T02:13:42.252Z,51.179272
2023-04-02T02:14:41.939Z,51.179291
2023-04-02T02:15:41.924Z,51.179268
2023-04-02T02:16:42.094Z,51.179253
2023-04-02T02:17:41.970Z,51.179253
2023-04-02T02:18:41.869Z,51.179264
2023-04-02T02:19:41.873Z,51.179256
2023-04-02T02:20:41.867Z,51.179260
2023-04-02T02:21:41.869Z,51.179230
2023-04-02T02:22:41.841Z,51.179264
2023-04-02T02:23:41.832Z,51.179264
2023-04-02T02:24:41.849Z,51.179245
2023-04-02T02:25:41.833Z,51.179256
2023-04-02T02:26:41.787Z,51.179268
2023-04-02T02:27:41.799Z,51.179283
2023-04-02T02:28:41.788Z,51.179283
2023-04-02T02:29:41.783Z,51.179264
2023-04-02T02:30:41.757Z,51.179234
2023-04-02T02:31:41.802Z,51.179245
2023-04-02T02:32:41.767Z,51.179218
2023-04-02T02:33:41.742Z,51.179241
2023-04-02T02:34:41.715Z,51.179256
2023-04-02T02:35:41.775Z,51.179230
2023-04-02T02:36:41.691Z,51.179230
2023-04-02T02:37:41.704Z,51.179272
2023-04-02T02:38:41.673Z,51.179306
2023-04-02T02:39:41.677Z,51.179279
2023-04-02T02:40:41.665Z,51.179295
2023-04-02T02:41:41.652Z,51.179241
2023-04-02T02:42:41.637Z,51.179276
2023-04-02T02:43:41.637Z,51.179264
2023-04-02T02:44:41.622Z,51.179234
2023-04-02T02:45:41.650Z,51.179234
2023-04-02T02:46:41.594Z,51.179234
2023-04-02T02:47:41.588Z,51.179283
2023-04-02T02:48:41.576Z,51.179310
2023-04-02T02:49:41.584Z,51.179241
2023-04-02T02:50:41.563Z,51.179249
2023-04-02T02:51:41.531Z,51.179249
2023-04-02T02:52:41.524Z,51.179253
2023-04-02T02:53:41.519Z,51.179264
2023-04-02T02:54:41.534Z,51.179260
2023-04-02T02:55:41.504Z,51.179276
2023-04-02T02:56:41.508Z,51.179268
2023-04-02T02:57:41.488Z,51.179241
2023-04-02T02:58:41.475Z,51.179256
2023-04-02T02:59:41.463Z,51.179260
2023-04-02T03:00:41.474Z,51.179272
2023-04-02T03:01:41.476Z,51.179317
2023-04-02T03:02:41.574Z,51.179329
2023-04-02T03:03:41.585Z,51.179314
2023-04-02T03:04:41.440Z,51.179291
2023-04-02T03:05:41.462Z,51.179306
2023-04-02T03:06:41.392Z,51.179279
2023-04-02T03:07:41.398Z,51.179260
2023-04-02T03:08:41.365Z,51.179302
2023-04-02T03:09:41.353Z,51.179291
2023-04-02T03:10:41.344Z,51.179268
2023-04-02T03:11:41.345Z,51.179253
2023-04-02T03:12:41.357Z,51.179295
2023-04-02T03:13:41.324Z,51.179310
2023-04-02T03:14:41.303Z,51.179298
2023-04-02T03:15:41.359Z,51.179245
2023-04-02T03:16:41.314Z,51.179283
2023-04-02T03:17:41.319Z,51.179268
2023-04-02T03:18:41.276Z,51.179249
2023-04-02T03:19:41.266Z,51.179249
2023-04-02T03:20:41.272Z,51.179249
2023-04-02T03:21:41.242Z,51.179211
2023-04-02T03:22:41.224Z,51.179214
2023-04-02T03:23:41.246Z,51.179203
2023-04-02T03:24:41.203Z,51.179214
2023-04-02T03:25:41.195Z,51.179226
2023-04-02T03:26:41.177Z,51.179237
2023-04-02T03:27:41.281Z,51.179237
2023-04-02T03:28:41.168Z,51.179298
2023-04-02T03:29:41.159Z,51.179253
2023-04-02T03:31:13.065Z,51.179241
2023-04-02T03:31:41.145Z,51.179195
2023-04-02T03:32:41.193Z,51.179184
2023-04-02T03:33:41.113Z,51.179211
2023-04-02T03:34:41.099Z,51.179295
2023-04-02T03:35:41.113Z,51.179283
2023-04-02T03:36:41.112Z,51.179256
2023-04-02T03:37:41.068Z,51.179279
2023-04-02T03:38:41.077Z,51.179260
2023-04-02T03:39:41.063Z,51.179226
2023-04-02T03:40:41.069Z,51.179291
2023-04-02T03:41:41.021Z,51.179298
2023-04-02T03:42:41.027Z,51.179245
2023-04-02T03:43:41.006Z,51.179256
2023-04-02T03:44:40.989Z,51.179211
2023-04-02T03:45:41.027Z,51.179218
2023-04-02T03:46:41.025Z,51.179180
2023-04-02T03:47:40.997Z,51.179207
2023-04-02T03:48:40.978Z,51.179214
2023-04-02T03:49:40.950Z,51.179241
2023-04-02T03:50:40.938Z,51.179283
2023-04-02T03:51:40.939Z,51.179272
2023-04-02T03:52:40.925Z,51.179199
2023-04-02T03:53:40.895Z,51.179226
2023-04-02T03:54:40.921Z,51.179222
2023-04-02T03:55:41.914Z,51.179218
2023-04-02T03:56:40.882Z,51.179203
2023-04-02T03:57:40.886Z,51.179180
2023-04-02T03:58:40.870Z,51.179226
2023-04-02T03:59:40.854Z,51.179169
2023-04-02T04:00:40.820Z,51.179165
2023-04-02T04:01:40.849Z,51.179184
2023-04-02T04:02:40.856Z,51.179241
2023-04-02T04:03:40.856Z,51.179268
2023-04-02T04:04:40.792Z,51.179161
2023-04-02T04:05:40.774Z,51.179123
2023-04-02T04:06:40.775Z,51.179176
2023-04-02T04:07:40.775Z,51.179222
2023-04-02T04:08:40.730Z,51.179218
2023-04-02T04:09:40.758Z,51.179199
2023-04-02T04:10:40.725Z,51.179192
2023-04-02T04:11:40.718Z,51.179180
2023-04-02T04:12:40.712Z,51.179192
2023-04-02T04:13:40.689Z,51.179192
2023-04-02T04:14:41.360Z,51.179203
2023-04-02T04:15:40.668Z,51.179188
2023-04-02T04:16:40.735Z,51.179264
2023-04-02T04:17:40.699Z,51.179226
2023-04-02T04:18:40.666Z,51.179165
2023-04-02T04:19:40.637Z,51.179203
2023-04-02T04:20:40.602Z,51.179214
2023-04-02T04:21:40.605Z,51.179241
2023-04-02T04:22:40.620Z,51.179272
2023-04-02T04:23:40.604Z,51.179291
2023-04-02T04:24:40.557Z,51.179287
2023-04-02T04:25:40.602Z,51.179249
2023-04-02T04:26:40.550Z,51.179234
2023-04-02T04:27:40.543Z,51.179150
2023-04-02T04:28:40.571Z,51.179142
2023-04-02T04:29:40.526Z,51.179192
2023-04-02T04:30:40.499Z,51.179218
2023-04-02T04:31:40.536Z,51.179222
2023-04-02T04:32:40.568Z,51.179253
2023-04-02T04:33:40.496Z,51.179211
2023-04-02T04:34:40.464Z,51.179192
2023-04-02T04:35:40.629Z,51.179188
2023-04-02T04:36:40.482Z,51.179180
2023-04-02T04:37:42.682Z,51.179203
2023-04-02T04:38:40.416Z,51.179211
2023-04-02T04:39:40.419Z,51.179199
2023-04-02T04:40:40.455Z,51.179195
2023-04-02T04:41:40.377Z,51.179203
2023-04-02T04:42:40.408Z,51.179199
2023-04-02T04:43:40.379Z,51.179203
2023-04-02T04:44:40.363Z,51.179230
2023-04-02T04:45:40.417Z,51.179203
2023-04-02T04:46:40.373Z,51.179188
2023-04-02T04:47:40.388Z,51.179218
2023-04-02T04:48:40.306Z,51.179226
2023-04-02T04:49:40.334Z,51.179195
2023-04-02T04:50:40.317Z,51.179226
2023-04-02T04:51:40.300Z,51.179260
2023-04-02T04:52:40.318Z,51.179214
2023-04-02T04:53:40.273Z,51.179211
2023-04-02T04:54:40.247Z,51.179211
2023-04-02T04:55:40.293Z,51.179245
2023-04-02T04:56:40.287Z,51.179256
2023-04-02T04:57:40.210Z,51.179234
2023-04-02T04:58:40.255Z,51.179218
2023-04-02T04:59:40.221Z,51.179222
2023-04-02T05:00:41.195Z,51.179256
2023-04-02T05:01:40.199Z,51.179249
2023-04-02T05:02:40.214Z,51.179245
2023-04-02T05:03:40.184Z,51.179207
2023-04-02T05:04:40.197Z,51.179211
2023-04-02T05:05:40.142Z,51.179211
2023-04-02T05:06:40.148Z,51.179184
2023-04-02T05:07:40.132Z,51.179188
2023-04-02T05:08:40.127Z,51.179180
2023-04-02T05:09:40.107Z,51.179169
2023-04-02T05:10:40.110Z,51.179184
2023-04-02T05:11:40.086Z,51.179222
2023-04-02T05:12:40.056Z,51.179199
2023-04-02T05:13:40.081Z,51.179203
2023-04-02T05:14:40.066Z,51.179199
2023-04-02T05:15:40.123Z,51.179199
2023-04-02T05:16:40.074Z,51.179188
2023-04-02T05:17:40.077Z,51.179218
2023-04-02T05:18:40.009Z,51.179237
2023-04-02T05:19:40.000Z,51.179253
2023-04-02T05:20:40.002Z,51.179237
2023-04-02T05:21:39.973Z,51.179214
2023-04-02T05:22:41.388Z,51.179234
2023-04-02T05:23:39.965Z,51.179214
2023-04-02T05:24:39.925Z,51.179211
2023-04-02T05:25:39.941Z,51.179207
2023-04-02T05:26:39.951Z,51.179241
2023-04-02T05:27:39.922Z,51.179272
2023-04-02T05:28:39.880Z,51.179260
2023-04-02T05:29:39.900Z,51.179295
2023-04-02T05:30:39.864Z,51.179253
2023-04-02T05:31:39.955Z,51.179253
2023-04-02T05:32:39.937Z,51.179237
2023-04-02T05:33:39.856Z,51.179264
2023-04-02T05:34:39.839Z,51.179298
2023-04-02T05:35:39.880Z,51.179291
2023-04-02T05:36:39.825Z,51.179245
2023-04-02T05:37:39.842Z,51.179237
2023-04-02T05:38:39.789Z,51.179241
2023-04-02T05:39:39.786Z,51.179272
2023-04-02T05:40:39.783Z,51.179283
2023-04-02T05:41:39.760Z,51.179222
2023-04-02T05:42:39.743Z,51.179234
2023-04-02T05:43:39.769Z,51.179237
2023-04-02T05:44:39.765Z,51.179249
2023-04-02T05:45:39.698Z,51.179253
2023-04-02T05:46:39.760Z,51.179264
2023-04-02T05:47:39.750Z,51.179237
2023-04-02T05:48:39.696Z,51.179226
2023-04-02T05:49:39.677Z,51.179249
2023-04-02T05:50:39.698Z,51.179264
2023-04-02T05:51:39.664Z,51.179245
2023-04-02T05:52:39.631Z,51.179272
2023-04-02T05:53:40.657Z,51.179264
2023-04-02T05:54:39.615Z,51.179241
2023-04-02T05:55:39.634Z,51.179245
2023-04-02T05:56:39.622Z,51.179279
2023-04-02T05:57:46.754Z,51.179283
2023-04-02T05:59:39.583Z,51.179276
2023-04-02T06:00:39.593Z,51.179256
2023-04-02T06:01:39.586Z,51.179211
2023-04-02T06:02:39.646Z,51.179230
2023-04-02T06:03:39.605Z,51.179268
2023-04-02T06:04:39.522Z,51.179276
2023-04-02T06:05:39.522Z,51.179272
2023-04-02T06:06:39.535Z,51.179237
2023-04-02T06:07:39.504Z,51.179241
2023-04-02T06:08:39.518Z,51.179230
2023-04-02T06:09:39.491Z,51.179230
2023-04-02T06:10:39.438Z,51.179237
2023-04-02T06:11:39.447Z,51.179253
2023-04-02T06:12:39.449Z,51.179249
2023-04-02T06:13:39.425Z,51.179241
2023-04-02T06:14:39.405Z,51.179272
2023-04-02T06:15:39.407Z,51.179253
2023-04-02T06:16:39.479Z,51.179249
2023-04-02T06:17:39.400Z,51.179260
2023-04-02T06:18:39.387Z,51.179260
2023-04-02T06:19:39.363Z,51.179256
2023-04-02T06:20:39.341Z,51.179230
2023-04-02T06:21:39.335Z,51.179230
2023-04-02T06:22:39.358Z,51.179230
2023-04-02T06:23:39.311Z,51.179230
2023-04-02T06:24:39.297Z,51.179211
2023-04-02T06:25:39.304Z,51.179211
2023-04-02T06:26:39.282Z,51.179253
2023-04-02T06:27:39.266Z,51.179279
2023-04-02T06:28:39.274Z,51.179268
2023-04-02T06:29:39.251Z,51.179287
2023-04-02T06:30:39.312Z,51.179298
2023-04-02T06:31:39.251Z,51.179291
2023-04-02T06:32:39.287Z,51.179260
2023-04-02T06:33:39.198Z,51.179211
2023-04-02T06:34:39.216Z,51.179207
2023-04-02T06:35:39.288Z,51.179226
2023-04-02T06:36:39.176Z,51.179237
2023-04-02T06:37:39.189Z,51.179272
2023-04-02T06:38:39.171Z,51.179287
2023-04-02T06:39:39.146Z,51.179283
2023-04-02T06:40:39.131Z,51.179302
2023-04-02T06:41:39.130Z,51.179287
2023-04-02T06:42:39.150Z,51.179276
2023-04-02T06:43:39.111Z,51.179264
2023-04-02T06:44:39.099Z,51.179256
2023-04-02T06:45:39.090Z,51.179226
2023-04-02T06:46:39.091Z,51.179226
2023-04-02T06:47:39.161Z,51.179218
2023-04-02T06:48:39.044Z,51.179245
2023-04-02T06:49:39.080Z,51.179256
2023-04-02T06:50:39.019Z,51.179241
2023-04-02T06:51:39.037Z,51.179249
2023-04-02T06:52:39.030Z,51.179272
2023-04-02T06:53:39.029Z,51.179268
2023-04-02T06:54:39.115Z,51.179256
2023-04-02T06:55:39.243Z,51.179264
2023-04-02T06:56:38.998Z,51.179268
2023-04-02T06:57:39.302Z,51.179256
2023-04-02T06:58:38.974Z,51.179253
2023-04-02T06:59:38.943Z,51.179260
2023-04-02T07:00:38.942Z,51.179253
2023-04-02T07:01:38.949Z,51.179230
2023-04-02T07:02:38.957Z,51.179230
2023-04-02T07:03:38.903Z,51.179234
2023-04-02T07:04:38.900Z,51.179256
2023-04-02T07:05:41.002Z,51.179276
2023-04-02T07:06:38.864Z,51.179287
2023-04-02T07:07:38.876Z,51.179295
2023-04-02T07:08:38.863Z,51.179291
2023-04-02T07:09:38.842Z,51.179287
2023-04-02T07:10:38.829Z,51.179268
2023-04-02T07:11:38.823Z,51.179291
2023-04-02T07:12:38.845Z,51.179298
2023-04-02T07:13:38.807Z,51.179283
2023-04-02T07:14:38.758Z,51.179237
2023-04-02T07:15:38.798Z,51.179253
2023-04-02T07:16:38.788Z,51.179268
2023-04-02T07:17:38.785Z,51.179272
2023-04-02T07:18:38.725Z,51.179295
2023-04-02T07:19:38.736Z,51.179310
2023-04-02T07:20:38.734Z,51.179302
2023-04-02T07:21:38.694Z,51.179295
2023-04-02T07:22:38.719Z,51.179295
2023-04-02T07:23:38.695Z,51.179276
2023-04-02T07:24:38.684Z,51.179188
2023-04-02T07:25:38.664Z,51.179230
2023-04-02T07:26:38.698Z,51.179214
2023-04-02T07:27:38.651Z,51.179253
2023-04-02T07:28:38.614Z,51.179264
2023-04-02T07:29:39.668Z,51.179260
2023-04-02T07:30:38.601Z,51.179276
2023-04-02T07:31:38.629Z,51.179329
2023-04-02T07:32:38.677Z,51.179337
2023-04-02T07:33:40.100Z,51.179337
2023-04-02T07:34:38.565Z,51.179283
2023-04-02T07:35:38.709Z,51.179256
2023-04-02T07:36:38.562Z,51.179214
2023-04-02T07:37:38.544Z,51.179218
2023-04-02T07:38:38.542Z,51.179230
2023-04-02T07:39:40.238Z,51.179245
2023-04-02T07:40:38.506Z,51.179207
2023-04-02T07:41:38.489Z,51.179199
2023-04-02T07:42:38.498Z,51.179188
2023-04-02T07:43:38.488Z,51.179157
2023-04-02T07:44:38.457Z,51.179157
2023-04-02T07:45:38.725Z,51.179188
2023-04-02T07:46:38.484Z,51.179180
2023-04-02T07:47:38.469Z,51.179188
2023-04-02T07:48:38.414Z,51.179203
2023-04-02T07:49:38.425Z,51.179230
2023-04-02T07:50:38.413Z,51.179222
2023-04-02T07:51:38.396Z,51.179211
2023-04-02T07:52:40.347Z,51.179218
2023-04-02T07:53:39.386Z,51.179226
2023-04-02T07:54:38.395Z,51.179226
2023-04-02T07:55:38.368Z,51.179272
2023-04-02T07:56:38.365Z,51.179253
2023-04-02T07:57:38.321Z,51.179264
2023-04-02T07:58:39.318Z,51.179264
2023-04-02T07:59:38.333Z,51.179268
2023-04-02T08:00:38.302Z,51.179234
2023-04-02T08:01:38.297Z,51.179226
2023-04-02T08:02:38.320Z,51.179199
2023-04-02T08:03:38.357Z,51.179195
2023-04-02T08:04:38.520Z,51.179188
2023-04-02T08:05:38.299Z,51.179192
2023-04-02T08:06:38.243Z,51.179207
2023-04-02T08:07:38.240Z,51.179211
2023-04-02T08:08:38.209Z,51.179245
2023-04-02T08:09:38.214Z,51.179249
2023-04-02T08:10:38.181Z,51.179256
2023-04-02T08:11:38.168Z,51.179245
2023-04-02T08:12:38.186Z,51.179230
2023-04-02T08:13:38.179Z,51.179226
2023-04-02T08:14:38.162Z,51.179264
2023-04-02T08:15:38.265Z,51.179302
2023-04-02T08:16:38.219Z,51.179317
2023-04-02T08:17:38.163Z,51.179302
2023-04-02T08:18:38.125Z,51.179325
2023-04-02T08:19:48.024Z,51.179329
2023-04-02T08:20:40.090Z,51.179291
2023-04-02T08:21:38.087Z,51.179287
2023-04-02T08:22:38.095Z,51.179214
2023-04-02T08:23:38.073Z,51.179237
2023-04-02T08:24:39.016Z,51.179222
2023-04-02T08:25:38.041Z,51.179218
2023-04-02T08:26:38.002Z,51.179195
2023-04-02T08:27:38.022Z,51.179207
2023-04-02T08:28:38.038Z,51.179199
2023-04-02T08:29:38.003Z,51.179245
2023-04-02T08:30:37.977Z,51.179291
2023-04-02T08:31:37.967Z,51.179272
2023-04-02T08:32:38.122Z,51.179276
2023-04-02T08:33:37.930Z,51.179279
2023-04-02T08:34:37.969Z,51.179253
2023-04-02T08:35:38.131Z,51.179218
2023-04-02T08:36:37.926Z,51.179222
2023-04-02T08:37:37.914Z,51.179226
2023-04-02T08:38:37.912Z,51.179249
2023-04-02T08:39:37.893Z,51.179234
2023-04-02T08:40:37.862Z,51.179173
2023-04-02T08:41:37.885Z,51.179153
2023-04-02T08:42:37.846Z,51.179165
2023-04-02T08:43:37.864Z,51.179214
2023-04-02T08:44:37.870Z,51.179234
2023-04-02T08:45:37.824Z,51.179226
2023-04-02T08:46:37.863Z,51.179230
2023-04-02T08:47:37.810Z,51.179256
2023-04-02T08:48:37.809Z,51.179256
2023-04-02T08:49:37.817Z,51.179249
2023-04-02T08:50:37.798Z,51.179188
2023-04-02T08:51:37.777Z,51.179203
2023-04-02T08:52:37.783Z,51.179256
2023-04-02T08:53:37.742Z,51.179226
2023-04-02T08:54:37.726Z,51.179222
2023-04-02T08:55:37.874Z,51.179241
2023-04-02T08:56:37.716Z,51.179237
2023-04-02T08:57:37.673Z,51.179268
2023-04-02T08:58:37.701Z,51.179260
2023-04-02T08:59:37.688Z,51.179287
2023-04-02T09:00:38.023Z,51.179279
2023-04-02T09:01:38.705Z,51.179234
2023-04-02T09:02:37.697Z,51.179241
2023-04-02T09:03:37.636Z,51.179279
2023-04-02T09:04:37.639Z,51.179241
2023-04-02T09:05:38.054Z,51.179249
2023-04-02T09:06:37.611Z,51.179237
2023-04-02T09:07:37.597Z,51.179230
2023-04-02T09:08:37.619Z,51.179230
2023-04-02T09:09:37.562Z,51.179237
2023-04-02T09:10:37.554Z,51.179218
2023-04-02T09:11:37.556Z,51.179230
2023-04-02T09:12:37.553Z,51.179253
2023-04-02T09:13:37.546Z,51.179249
2023-04-02T09:14:37.530Z,51.179237
2023-04-02T09:15:37.810Z,51.179264
2023-04-02T09:16:37.479Z,51.179276
2023-04-02T09:17:50.524Z,51.179272
2023-04-02T09:18:39.575Z,51.179276
2023-04-02T09:19:37.482Z,51.179283
2023-04-02T09:20:37.443Z,51.179264
2023-04-02T09:21:37.458Z,51.179276
2023-04-02T09:22:37.445Z,51.179260
2023-04-02T09:23:37.431Z,51.179214
2023-04-02T09:24:37.392Z,51.179199
2023-04-02T09:25:37.523Z,51.179234
2023-04-02T09:26:37.398Z,51.179283
2023-04-02T09:27:37.383Z,51.179234
2023-04-02T09:28:37.353Z,51.179207
2023-04-02T09:29:37.381Z,51.179207
2023-04-02T09:30:37.333Z,51.179241
2023-04-02T09:32:09.269Z,51.179283
2023-04-02T09:32:37.397Z,51.179272
2023-04-02T09:33:37.305Z,51.179218
2023-04-02T09:34:37.312Z,51.179192
2023-04-02T09:35:37.450Z,51.179214
2023-04-02T09:36:37.307Z,51.179207
2023-04-02T09:37:37.278Z,51.179180
2023-04-02T09:38:37.257Z,51.179173
2023-04-02T09:39:37.249Z,51.179188
2023-04-02T09:40:37.251Z,51.179195
2023-04-02T09:41:37.362Z,51.179173
2023-04-02T09:42:37.213Z,51.179169
2023-04-02T09:43:37.198Z,51.179188
2023-04-02T09:44:37.233Z,51.179226
2023-04-02T09:45:37.288Z,51.179199
2023-04-02T09:46:37.241Z,51.179203
2023-04-02T09:47:37.307Z,51.179211
2023-04-02T09:48:38.201Z,51.179214
2023-04-02T09:49:37.156Z,51.179207
2023-04-02T09:50:37.139Z,51.179256
2023-04-02T09:51:37.130Z,51.179249
2023-04-02T09:52:37.103Z,51.179256
2023-04-02T09:53:37.119Z,51.179295
2023-04-02T09:54:37.090Z,51.179268
2023-04-02T09:55:37.296Z,51.179245
2023-04-02T09:56:37.085Z,51.179192
2023-04-02T09:57:37.045Z,51.179226
2023-04-02T09:58:38.059Z,51.179214
2023-04-02T09:59:37.056Z,51.179260
2023-04-02T10:00:37.020Z,51.179298
2023-04-02T10:01:37.164Z,51.179283
2023-04-02T10:02:37.089Z,51.179317
2023-04-02T10:03:36.998Z,51.179314
2023-04-02T10:04:37.022Z,51.179283
2023-04-02T10:05:40.948Z,51.179314
2023-04-02T10:06:38.043Z,51.179283
2023-04-02T10:07:36.955Z,51.179264
2023-04-02T10:08:36.954Z,51.179226
2023-04-02T10:09:36.970Z,51.179272
2023-04-02T10:10:37.057Z,51.179314
2023-04-02T10:12:37.906Z,51.179272
2023-04-02T10:13:36.891Z,51.179268
2023-04-02T10:14:36.884Z,51.179272
2023-04-02T10:15:37.085Z,51.179283
2023-04-02T10:16:36.903Z,51.179272
2023-04-02T10:17:36.880Z,51.179256
2023-04-02T10:18:36.845Z,51.179230
2023-04-02T10:19:36.833Z,51.179211
2023-04-02T10:20:48.684Z,51.179256
2023-04-02T10:21:37.810Z,51.179291
2023-04-02T10:22:36.805Z,51.179276
2023-04-02T10:23:36.771Z,51.179272
2023-04-02T10:24:36.795Z,51.179268
2023-04-02T10:25:36.980Z,51.179207
2023-04-02T10:26:36.769Z,51.179195
2023-04-02T10:27:36.740Z,51.179260
2023-04-02T10:28:36.734Z,51.179283
2023-04-02T10:29:36.725Z,51.179256
2023-04-02T10:30:36.732Z,51.179283
2023-04-02T10:31:36.708Z,51.179276
2023-04-02T10:32:36.738Z,51.179253
2023-04-02T10:33:36.673Z,51.179253
2023-04-02T10:34:36.684Z,51.179283
2023-04-02T10:35:36.808Z,51.179306
2023-04-02T10:36:36.656Z,51.179295
2023-04-02T10:37:36.661Z,51.179295
2023-04-02T10:38:36.651Z,51.179310
2023-04-02T10:39:36.618Z,51.179298
2023-04-02T10:40:36.616Z,51.179302
2023-04-02T10:41:36.609Z,51.179302
2023-04-02T10:42:36.590Z,51.179295
2023-04-02T10:43:36.587Z,51.179317
2023-04-02T10:44:36.572Z,51.179325
2023-04-02T10:45:36.882Z,51.179325
2023-04-02T10:46:36.643Z,51.179253
2023-04-02T10:47:36.579Z,51.179214
2023-04-02T10:48:36.562Z,51.179264
2023-04-02T10:49:36.609Z,51.179298
2023-04-02T10:50:36.541Z,51.179306
2023-04-02T10:51:36.517Z,51.179302
2023-04-02T10:52:36.517Z,51.179272
2023-04-02T10:53:36.532Z,51.179310
2023-04-02T10:54:36.491Z,51.179306
2023-04-02T10:55:36.694Z,51.179279
2023-04-02T10:56:47.990Z,51.179291
2023-04-02T10:57:38.506Z,51.179310
2023-04-02T10:58:36.452Z,51.179337
2023-04-02T10:59:36.432Z,51.179310
2023-04-02T11:00:36.411Z,51.179310
2023-04-02T11:01:36.411Z,51.179260
2023-04-02T11:02:37.556Z,51.179249
2023-04-02T11:03:36.454Z,51.179276
2023-04-02T11:04:36.383Z,51.179279
2023-04-02T11:05:36.568Z,51.179276
2023-04-02T11:06:36.353Z,51.179283
2023-04-02T11:07:36.364Z,51.179279
2023-04-02T11:08:36.368Z,51.179279
2023-04-02T11:09:36.320Z,51.179249
2023-04-02T11:10:36.322Z,51.179260
2023-04-02T11:11:36.311Z,51.179256
2023-04-02T11:12:41.410Z,51.179291
2023-04-02T11:13:37.318Z,51.179291
2023-04-02T11:14:36.270Z,51.179268
2023-04-02T11:15:36.652Z,51.179272
2023-04-02T11:16:40.681Z,51.179283
2023-04-02T11:17:38.302Z,51.179272
2023-04-02T11:18:36.220Z,51.179268
2023-04-02T11:19:36.203Z,51.179249
2023-04-02T11:20:36.223Z,51.179249
2023-04-02T11:21:42.229Z,51.179287
2023-04-02T11:22:38.198Z,51.179264
2023-04-02T11:23:36.193Z,51.179245
2023-04-02T11:24:36.161Z,51.179279
2023-04-02T11:25:36.468Z,51.179295
2023-04-02T11:26:36.205Z,51.179302